createdAt,value
2022-09-28T00:00:39.046Z,8.54
2022-09-28T00:03:06.975Z,8.55
2022-09-28T00:05:35.149Z,8.53
2022-09-28T00:08:02.883Z,8.54
2022-09-28T00:10:30.626Z,8.55
2022-09-28T00:13:00.688Z,8.55
2022-09-28T00:15:29.212Z,8.55
2022-09-28T00:17:56.814Z,8.54
2022-09-28T00:20:24.409Z,8.53
2022-09-28T00:22:51.966Z,8.54
2022-09-28T00:25:21.976Z,8.53
2022-09-28T00:27:51.227Z,8.53
2022-09-28T00:30:20.325Z,8.53
2022-09-28T00:32:47.903Z,8.54
2022-09-28T00:35:15.765Z,8.53
2022-09-28T00:37:43.427Z,8.52
2022-09-28T00:40:11.242Z,8.52
2022-09-28T00:42:42.794Z,8.51
2022-09-28T00:45:11.161Z,8.52
2022-09-28T00:47:49.804Z,8.52
2022-09-28T00:50:23.894Z,8.53
2022-09-28T00:52:55.951Z,8.53
2022-09-28T00:55:31.889Z,8.52
2022-09-28T00:58:04.719Z,8.53
2022-09-28T01:00:32.611Z,8.54
2022-09-28T01:03:01.925Z,8.54
2022-09-28T01:05:29.806Z,8.54
2022-09-28T01:07:58.542Z,8.54
2022-09-28T01:10:26.209Z,8.54
2022-09-28T01:12:54.019Z,8.54
2022-09-28T01:15:23.204Z,8.53
2022-09-28T01:18:08.483Z,8.51
2022-09-28T01:20:55.799Z,8.49
2022-09-28T01:23:53.249Z,8.49
2022-09-28T01:26:36.227Z,8.51
2022-09-28T01:29:12.262Z,8.48
2022-09-28T01:31:46.401Z,8.48
2022-09-28T01:34:19.770Z,8.48
2022-09-28T01:36:50.938Z,8.50
2022-09-28T01:39:23.356Z,8.49
2022-09-28T01:41:56.637Z,8.48
2022-09-28T01:44:28.879Z,8.48
2022-09-28T01:47:03.629Z,8.48
2022-09-28T01:49:38.315Z,8.48
2022-09-28T01:52:13.602Z,8.47
2022-09-28T01:54:45.695Z,8.43
2022-09-28T01:57:18.538Z,8.42
2022-09-28T01:59:54.301Z,8.40
2022-09-28T02:02:29.602Z,8.38
2022-09-28T02:05:01.193Z,8.36
2022-09-28T02:07:33.192Z,8.35
2022-09-28T02:10:04.187Z,8.35
2022-09-28T02:12:36.969Z,8.34
2022-09-28T02:15:13.126Z,8.32
2022-09-28T02:17:41.607Z,8.32
2022-09-28T02:20:10.217Z,8.32
2022-09-28T02:22:43.083Z,8.29
2022-09-28T02:25:14.951Z,8.27
2022-09-28T02:27:51.726Z,8.21
2022-09-28T02:30:19.779Z,8.17
2022-09-28T02:32:50.758Z,8.12
2022-09-28T02:35:19.832Z,8.09
2022-09-28T02:37:48.094Z,8.04
2022-09-28T02:40:16.987Z,8.02
2022-09-28T02:42:57.660Z,7.99
2022-09-28T02:45:45.142Z,7.96
2022-09-28T02:48:42.682Z,7.91
2022-09-28T02:51:22.181Z,7.84
2022-09-28T02:54:21.825Z,7.80
2022-09-28T02:57:03.223Z,7.76
2022-09-28T02:59:47.172Z,7.72
2022-09-28T03:02:24.885Z,7.67
2022-09-28T03:05:06.739Z,7.63
2022-09-28T03:07:38.487Z,7.58
2022-09-28T03:10:12.387Z,7.56
2022-09-28T03:12:40.628Z,7.52
2022-09-28T03:15:12.259Z,7.48
2022-09-28T03:17:40.582Z,7.44
2022-09-28T03:20:11.041Z,7.41
2022-09-28T03:22:38.992Z,7.36
2022-09-28T03:25:07.961Z,7.33
2022-09-28T03:27:38.529Z,7.27
2022-09-28T03:30:08.285Z,7.24
2022-09-28T03:32:38.665Z,7.22
2022-09-28T03:35:08.561Z,7.16
2022-09-28T03:37:38.879Z,7.14
2022-09-28T03:40:07.838Z,7.09
2022-09-28T03:42:37.088Z,7.05
2022-09-28T03:45:06.211Z,6.97
2022-09-28T03:47:34.178Z,6.87
2022-09-28T03:50:03.221Z,6.83
2022-09-28T03:52:30.977Z,6.77
2022-09-28T03:54:58.880Z,6.74
2022-09-28T03:57:28.099Z,6.71
2022-09-28T03:59:55.843Z,6.69
2022-09-28T04:02:23.614Z,6.65
2022-09-28T04:04:51.445Z,6.64
2022-09-28T04:07:20.443Z,6.63
2022-09-28T04:09:48.151Z,6.63
2022-09-28T04:12:15.862Z,6.60
2022-09-28T04:14:43.581Z,6.54
2022-09-28T04:17:11.325Z,6.53
2022-09-28T04:20:04.553Z,6.52
2022-09-28T04:22:43.258Z,6.49
2022-09-28T04:25:11.435Z,6.48
2022-09-28T04:27:56.589Z,6.47
2022-09-28T04:30:24.779Z,6.48
2022-09-28T04:32:53.361Z,6.50
2022-09-28T04:35:21.207Z,6.50
2022-09-28T04:37:50.264Z,6.53
2022-09-28T04:40:17.985Z,6.55
2022-09-28T04:42:45.708Z,6.57
2022-09-28T04:45:14.947Z,6.60
2022-09-28T04:47:47.471Z,6.64
2022-09-28T04:50:38.093Z,6.66
2022-09-28T04:53:20.329Z,6.69
2022-09-28T04:55:56.701Z,6.71
2022-09-28T04:58:24.457Z,6.72
2022-09-28T05:00:52.859Z,6.77
2022-09-28T05:03:43.545Z,6.80
2022-09-28T05:06:28.618Z,6.84
2022-09-28T05:09:03.738Z,6.87
2022-09-28T05:11:31.421Z,6.90
2022-09-28T05:13:59.079Z,6.93
2022-09-28T05:16:27.809Z,6.96
2022-09-28T05:19:18.393Z,7.00
2022-09-28T05:21:46.905Z,7.01
2022-09-28T05:24:16.272Z,7.04
2022-09-28T05:26:48.045Z,7.07
2022-09-28T05:29:15.839Z,7.09
2022-09-28T05:32:02.475Z,7.13
2022-09-28T05:34:40.073Z,7.14
2022-09-28T05:37:07.921Z,7.16
2022-09-28T05:39:36.913Z,7.17
2022-09-28T05:42:04.717Z,7.19
2022-09-28T05:44:32.395Z,7.20
2022-09-28T05:47:00.153Z,7.21
2022-09-28T05:49:31.713Z,7.21
2022-09-28T05:52:01.071Z,7.24
2022-09-28T05:54:28.833Z,7.25
2022-09-28T05:56:57.857Z,7.24
2022-09-28T05:59:25.567Z,7.26
2022-09-28T06:01:53.217Z,7.26
2022-09-28T06:04:20.985Z,7.28
2022-09-28T06:06:49.822Z,7.29
2022-09-28T06:09:17.661Z,7.30
2022-09-28T06:12:15.907Z,7.33
2022-09-28T06:14:46.644Z,7.35
2022-09-28T06:17:14.546Z,7.36
2022-09-28T06:19:45.381Z,7.38
2022-09-28T06:22:26.757Z,7.39
2022-09-28T06:25:06.726Z,7.40
2022-09-28T06:27:36.004Z,7.41
2022-09-28T06:30:03.803Z,7.42
2022-09-28T06:32:31.556Z,7.43
2022-09-28T06:34:59.220Z,7.45
2022-09-28T06:37:28.921Z,7.47
2022-09-28T06:39:57.044Z,7.49
2022-09-28T06:42:25.266Z,7.53
2022-09-28T06:45:28.380Z,7.54
2022-09-28T06:48:21.569Z,7.55
2022-09-28T06:50:50.963Z,7.57
2022-09-28T06:53:39.588Z,7.58
2022-09-28T06:56:33.159Z,7.59
2022-09-28T06:59:01.105Z,7.61
2022-09-28T07:01:30.714Z,7.63
2022-09-28T07:04:06.366Z,7.65
2022-09-28T07:06:52.780Z,7.66
2022-09-28T07:09:43.706Z,7.64
2022-09-28T07:12:21.807Z,7.64
2022-09-28T07:14:57.323Z,7.62
2022-09-28T07:17:29.016Z,7.63
2022-09-28T07:20:05.223Z,7.63
2022-09-28T07:22:43.044Z,7.65
2022-09-28T07:25:14.286Z,7.64
2022-09-28T07:28:09.531Z,7.66
2022-09-28T07:31:15.520Z,7.67
2022-09-28T07:34:08.016Z,7.67
2022-09-28T07:36:58.934Z,7.71
2022-09-28T07:39:26.813Z,7.70
2022-09-28T07:41:56.702Z,7.72
2022-09-28T07:44:28.548Z,7.73
2022-09-28T07:46:56.726Z,7.75
2022-09-28T07:49:33.022Z,7.78
2022-09-28T07:52:15.795Z,7.80
2022-09-28T07:55:06.582Z,7.83
2022-09-28T07:57:56.183Z,7.88
2022-09-28T08:00:48.388Z,7.93
2022-09-28T08:03:17.433Z,7.96
2022-09-28T08:05:47.481Z,7.97
2022-09-28T08:08:15.849Z,8.00
2022-09-28T08:10:47.172Z,8.02
2022-09-28T08:13:38.890Z,8.07
2022-09-28T08:16:25.146Z,8.11
2022-09-28T08:19:10.357Z,8.19
2022-09-28T08:21:47.280Z,8.26
2022-09-28T08:24:17.673Z,8.31
2022-09-28T08:26:47.154Z,8.34
2022-09-28T08:29:17.180Z,8.38
2022-09-28T08:31:50.569Z,8.43
2022-09-28T08:34:44.325Z,8.50
2022-09-28T08:37:26.279Z,8.58
2022-09-28T08:40:19.511Z,8.60
2022-09-28T08:43:16.638Z,8.58
2022-09-28T08:46:25.179Z,8.61
2022-09-28T08:49:26.790Z,8.60
2022-09-28T08:52:14.839Z,8.65
2022-09-28T08:55:14.709Z,8.68
2022-09-28T08:57:47.738Z,8.71
2022-09-28T09:00:22.422Z,8.74
2022-09-28T09:02:50.616Z,8.74
2022-09-28T09:05:39.149Z,8.76
2022-09-28T09:08:25.234Z,8.82
2022-09-28T09:11:01.661Z,8.82
2022-09-28T09:13:53.791Z,8.85
2022-09-28T09:16:33.290Z,8.85
2022-09-28T09:19:16.715Z,8.91
2022-09-28T09:22:16.764Z,8.94
2022-09-28T09:24:51.251Z,8.98
2022-09-28T09:27:41.343Z,9.00
2022-09-28T09:30:12.959Z,9.02
2022-09-28T09:33:00.143Z,9.06
2022-09-28T09:35:46.021Z,9.03
2022-09-28T09:38:38.484Z,9.03
2022-09-28T09:41:43.052Z,9.00
2022-09-28T09:45:01.102Z,9.05
2022-09-28T09:47:46.360Z,9.08
2022-09-28T09:50:30.115Z,9.14
2022-09-28T09:53:03.718Z,9.20
2022-09-28T09:55:35.221Z,9.24
2022-09-28T09:58:28.041Z,9.26
2022-09-28T10:01:09.252Z,9.28
2022-09-28T10:04:20.292Z,9.34
2022-09-28T10:06:51.587Z,9.39
2022-09-28T10:09:24.941Z,9.42
2022-09-28T10:11:53.986Z,9.46
2022-09-28T10:14:23.555Z,9.49
2022-09-28T10:17:04.663Z,9.53
2022-09-28T10:19:51.170Z,9.57
2022-09-28T10:22:48.970Z,9.60
2022-09-28T10:25:19.588Z,9.64
2022-09-28T10:27:52.680Z,9.69
2022-09-28T10:30:23.456Z,9.71
2022-09-28T10:32:59.014Z,9.74
2022-09-28T10:35:32.320Z,9.73
2022-09-28T10:38:08.065Z,9.74
2022-09-28T10:40:48.501Z,9.74
2022-09-28T10:43:26.073Z,9.77
2022-09-28T10:46:02.716Z,9.78
2022-09-28T10:48:46.822Z,9.76
2022-09-28T10:51:14.635Z,9.77
2022-09-28T10:53:58.070Z,9.72
2022-09-28T10:56:42.172Z,9.70
2022-09-28T10:59:38.922Z,9.70
2022-09-28T11:02:23.151Z,9.73
2022-09-28T11:04:57.803Z,9.75
2022-09-28T11:07:28.465Z,9.76
2022-09-28T11:09:56.720Z,9.77
2022-09-28T11:12:27.133Z,9.77
2022-09-28T11:14:58.485Z,9.80
2022-09-28T11:21:55.680Z,9.82
2022-09-28T11:24:31.629Z,9.90
2022-09-28T11:27:03.371Z,9.96
2022-09-28T11:29:36.642Z,9.96
2022-09-28T11:32:24.289Z,9.99
2022-09-28T11:35:19.671Z,10.02
2022-09-28T11:38:12.981Z,10.07
2022-09-28T11:41:26.324Z,10.11
2022-09-28T11:44:14.283Z,10.14
2022-09-28T11:46:53.071Z,10.16
2022-09-28T11:49:30.987Z,10.15
2022-09-28T11:52:05.111Z,10.14
2022-09-28T11:54:41.571Z,10.13
2022-09-28T11:57:16.627Z,10.09
2022-09-28T11:59:57.054Z,10.09
2022-09-28T12:02:30.743Z,10.13
2022-09-28T12:05:20.955Z,10.13
2022-09-28T12:07:55.179Z,10.13
2022-09-28T12:10:48.644Z,10.09
2022-09-28T12:13:22.764Z,10.06
2022-09-28T12:16:20.099Z,10.02
2022-09-28T12:18:47.930Z,9.96
2022-09-28T12:21:32.095Z,9.90
2022-09-28T12:24:07.680Z,9.84
2022-09-28T12:26:43.460Z,9.82
2022-09-28T12:29:15.413Z,9.77
2022-09-28T12:31:56.614Z,9.74
2022-09-28T12:34:24.411Z,9.72
2022-09-28T12:37:06.483Z,9.71
2022-09-28T12:39:58.426Z,9.68
2022-09-28T12:42:44.166Z,9.63
2022-09-28T12:45:38.709Z,9.61
2022-09-28T12:48:33.490Z,9.62
2022-09-28T12:51:11.823Z,9.61
2022-09-28T12:53:53.712Z,9.65
2022-09-28T12:56:30.496Z,9.68
2022-09-28T12:59:13.387Z,9.69
2022-09-28T13:01:58.166Z,9.74
2022-09-28T13:04:45.605Z,9.83
2022-09-28T13:07:21.195Z,9.79
2022-09-28T13:09:59.049Z,9.86
2022-09-28T13:12:36.928Z,9.90
2022-09-28T13:15:32.987Z,9.97
2022-09-28T13:18:09.169Z,10.03
2022-09-28T13:20:49.139Z,10.05
2022-09-28T13:23:21.464Z,10.07
2022-09-28T13:25:55.681Z,10.13
2022-09-28T13:28:27.206Z,10.19
2022-09-28T13:33:37.019Z,10.35
2022-09-28T13:36:05.811Z,10.41
2022-09-28T13:38:55.255Z,10.51
2022-09-28T13:41:29.020Z,10.58
2022-09-28T13:44:17.073Z,10.58
2022-09-28T13:46:57.233Z,10.59
2022-09-28T13:49:32.624Z,10.57
2022-09-28T13:52:53.843Z,10.53
2022-09-28T13:56:19.880Z,10.46
2022-09-28T13:58:56.411Z,10.47
2022-09-28T14:01:29.143Z,10.44
2022-09-28T14:04:13.491Z,10.45
2022-09-28T14:06:51.420Z,10.47
2022-09-28T14:09:27.809Z,10.48
2022-09-28T14:11:57.953Z,10.49
2022-09-28T14:14:57.609Z,10.47
2022-09-28T14:18:00.194Z,10.44
2022-09-28T14:20:32.513Z,10.42
2022-09-28T14:23:33.065Z,10.39
2022-09-28T14:26:18.302Z,10.36
2022-09-28T14:28:59.722Z,10.36
2022-09-28T14:31:30.483Z,10.35
2022-09-28T14:34:01.263Z,10.36
2022-09-28T14:37:00.418Z,10.40
2022-09-28T14:39:49.119Z,10.41
2022-09-28T14:42:20.153Z,10.43
2022-09-28T14:45:19.903Z,10.47
2022-09-28T14:48:06.729Z,10.51
2022-09-28T14:50:34.712Z,10.54
2022-09-28T14:53:06.994Z,10.56
2022-09-28T14:55:43.838Z,10.60
2022-09-28T14:58:19.061Z,10.60
2022-09-28T15:00:49.120Z,10.63
2022-09-28T15:03:17.934Z,10.64
2022-09-28T15:05:49.379Z,10.72
2022-09-28T15:08:21.392Z,10.79
2022-09-28T15:10:51.501Z,10.84
2022-09-28T15:13:22.317Z,10.86
2022-09-28T15:15:54.143Z,10.87
2022-09-28T15:18:47.616Z,10.89
2022-09-28T15:21:16.371Z,10.88
2022-09-28T15:23:46.916Z,10.90
2022-09-28T15:26:27.523Z,10.90
2022-09-28T15:28:56.387Z,10.88
2022-09-28T15:31:26.282Z,10.83
2022-09-28T15:34:11.733Z,10.79
2022-09-28T15:36:41.850Z,10.76
2022-09-28T15:39:16.214Z,10.75
2022-09-28T15:41:45.828Z,10.74
2022-09-28T15:44:33.906Z,10.75
2022-09-28T15:47:09.345Z,10.75
2022-09-28T15:49:42.133Z,10.74
2022-09-28T15:52:25.470Z,10.72
2022-09-28T15:54:55.288Z,10.70
2022-09-28T15:57:33.867Z,10.69
2022-09-28T16:00:02.130Z,10.70
2022-09-28T16:02:39.727Z,10.69
2022-09-28T16:05:35.675Z,10.71
2022-09-28T16:08:04.995Z,10.69
2022-09-28T16:10:35.818Z,10.67
2022-09-28T16:13:20.079Z,10.65
2022-09-28T16:15:57.969Z,10.62
2022-09-28T16:18:27.699Z,10.60
2022-09-28T16:20:58.842Z,10.57
2022-09-28T16:23:31.061Z,10.54
2022-09-28T16:26:02.692Z,10.51
2022-09-28T16:28:51.974Z,10.45
2022-09-28T16:31:28.231Z,10.43
2022-09-28T16:33:58.203Z,10.38
2022-09-28T16:36:29.774Z,10.35
2022-09-28T16:38:57.728Z,10.30
2022-09-28T16:41:29.204Z,10.27
2022-09-28T16:44:01.030Z,10.22
2022-09-28T16:46:34.249Z,10.16
2022-09-28T16:49:03.149Z,10.07
2022-09-28T16:51:30.786Z,10.02
2022-09-28T16:54:19.201Z,9.97
2022-09-28T16:56:48.179Z,9.87
2022-09-28T16:59:15.967Z,9.81
2022-09-28T17:01:43.898Z,9.75
2022-09-28T17:04:12.139Z,9.69
2022-09-28T17:06:39.838Z,9.63
2022-09-28T17:09:07.996Z,9.61
2022-09-28T17:11:36.112Z,9.57
2022-09-28T17:14:05.143Z,9.52
2022-09-28T17:17:02.651Z,9.46
2022-09-28T17:19:24.116Z,9.40
2022-09-28T17:21:52.492Z,9.34
2022-09-28T17:24:20.944Z,9.30
2022-09-28T17:26:51.197Z,9.25
2022-09-28T17:29:20.643Z,9.20
2022-09-28T17:31:48.770Z,9.13
2022-09-28T17:34:17.039Z,9.09
2022-09-28T17:36:45.774Z,9.04
2022-09-28T17:39:15.388Z,8.98
2022-09-28T17:41:43.073Z,8.91
2022-09-28T17:44:11.214Z,8.86
2022-09-28T17:46:45.936Z,8.79
2022-09-28T17:49:14.261Z,8.75
2022-09-28T17:51:42.061Z,8.69
2022-09-28T17:54:09.939Z,8.64
2022-09-28T17:56:37.924Z,8.59
2022-09-28T17:59:07.899Z,8.54
2022-09-28T18:01:40.675Z,8.49
2022-09-28T18:04:15.919Z,8.44
2022-09-28T18:06:55.672Z,8.39
2022-09-28T18:09:25.358Z,8.35
2022-09-28T18:12:00.511Z,8.30
2022-09-28T18:14:28.571Z,8.26
2022-09-28T18:16:57.826Z,8.20
2022-09-28T18:19:28.651Z,8.18
2022-09-28T18:21:59.698Z,8.15
2022-09-28T18:24:27.545Z,8.09
2022-09-28T18:26:55.383Z,8.06
2022-09-28T18:29:23.230Z,8.05
2022-09-28T18:31:51.019Z,8.00
2022-09-28T18:34:20.432Z,7.96
2022-09-28T18:36:48.382Z,7.93
2022-09-28T18:39:16.365Z,7.90
2022-09-28T18:41:44.206Z,7.86
2022-09-28T18:44:11.944Z,7.82
2022-09-28T18:46:40.959Z,7.77
2022-09-28T18:49:08.741Z,7.73
2022-09-28T18:51:37.995Z,7.68
2022-09-28T18:54:07.131Z,7.62
2022-09-28T18:56:37.242Z,7.56
2022-09-28T18:59:09.923Z,7.51
2022-09-28T19:01:41.588Z,7.45
2022-09-28T19:04:11.161Z,7.40
2022-09-28T19:06:41.745Z,7.35
2022-09-28T19:09:09.902Z,7.29
2022-09-28T19:11:37.810Z,7.24
2022-09-28T19:14:05.699Z,7.20
2022-09-28T19:16:34.722Z,7.15
2022-09-28T19:19:03.059Z,7.11
2022-09-28T19:21:31.498Z,7.06
2022-09-28T19:24:04.042Z,7.00
2022-09-28T19:26:32.919Z,6.96
2022-09-28T19:29:02.098Z,6.91
2022-09-28T19:31:30.981Z,6.87
2022-09-28T19:33:58.907Z,6.83
2022-09-28T19:36:28.596Z,6.79
2022-09-28T19:38:57.796Z,6.76
2022-09-28T19:41:51.070Z,6.73
2022-09-28T19:44:24.746Z,6.69
2022-09-28T19:46:54.674Z,6.66
2022-09-28T19:49:23.977Z,6.58
2022-09-28T19:52:13.883Z,6.54
2022-09-28T19:54:43.931Z,6.49
2022-09-28T19:57:14.444Z,6.45
2022-09-28T19:59:42.722Z,6.42
2022-09-28T20:02:12.380Z,6.39
2022-09-28T20:04:40.175Z,6.35
2022-09-28T20:07:07.990Z,6.35
2022-09-28T20:09:35.889Z,6.33
2022-09-28T20:12:03.685Z,6.35
2022-09-28T20:14:38.048Z,6.34
2022-09-28T20:17:08.594Z,6.31
2022-09-28T20:19:36.526Z,6.30
2022-09-28T20:22:04.725Z,6.30
2022-09-28T20:24:33.120Z,6.30
2022-09-28T20:27:01.290Z,6.31
2022-09-28T20:29:31.667Z,6.34
2022-09-28T20:32:01.168Z,6.36
2022-09-28T20:34:28.940Z,6.37
2022-09-28T20:36:56.703Z,6.39
2022-09-28T20:39:24.465Z,6.41
2022-09-28T20:41:52.245Z,6.42
2022-09-28T20:44:20.289Z,6.41
2022-09-28T20:46:50.928Z,6.43
2022-09-28T20:49:20.049Z,6.44
2022-09-28T20:51:47.950Z,6.46
2022-09-28T20:54:15.734Z,6.46
2022-09-28T20:56:43.561Z,6.48
2022-09-28T20:59:13.065Z,6.47
2022-09-28T21:01:41.699Z,6.44
2022-09-28T21:04:10.990Z,6.45
2022-09-28T21:06:41.787Z,6.43
2022-09-28T21:09:10.955Z,6.43
2022-09-28T21:11:39.793Z,6.41
2022-09-28T21:14:09.635Z,6.40
2022-09-28T21:16:37.800Z,6.35
2022-09-28T21:19:06.233Z,6.30
2022-09-28T21:21:34.011Z,6.28
2022-09-28T21:24:03.307Z,6.26
2022-09-28T21:26:32.732Z,6.23
2022-09-28T21:29:02.343Z,6.21
2022-09-28T21:31:32.582Z,6.18
2022-09-28T21:34:00.915Z,6.14
2022-09-28T21:36:28.698Z,6.11
2022-09-28T21:38:56.495Z,6.10
2022-09-28T21:41:26.248Z,6.08
2022-09-28T21:43:54.037Z,6.06
2022-09-28T21:46:22.022Z,6.03
2022-09-28T21:48:52.567Z,5.99
2022-09-28T21:51:20.960Z,5.94
2022-09-28T21:53:49.601Z,5.94
2022-09-28T21:56:17.672Z,5.91
2022-09-28T21:58:49.073Z,5.89
2022-09-28T22:01:19.503Z,5.88
2022-09-28T22:03:48.915Z,5.89
2022-09-28T22:06:18.844Z,5.88
2022-09-28T22:08:46.936Z,5.86
2022-09-28T22:11:16.753Z,5.86
2022-09-28T22:13:49.107Z,5.85
2022-09-28T22:16:19.281Z,5.84
2022-09-28T22:18:48.189Z,5.82
2022-09-28T22:21:17.763Z,5.79
2022-09-28T22:23:45.719Z,5.78
2022-09-28T22:26:17.920Z,5.78
2022-09-28T22:28:49.441Z,5.76
2022-09-28T22:31:19.353Z,5.74
2022-09-28T22:33:47.208Z,5.73
2022-09-28T22:36:16.677Z,5.72
2022-09-28T22:38:44.893Z,5.70
2022-09-28T22:41:15.824Z,5.68
2022-09-28T22:43:44.429Z,5.66
2022-09-28T22:46:15.279Z,5.65
2022-09-28T22:48:47.706Z,5.64
2022-09-28T22:51:16.098Z,5.64
2022-09-28T22:53:44.129Z,5.62
2022-09-28T22:56:17.539Z,5.63
2022-09-28T22:58:46.445Z,5.62
2022-09-28T23:01:17.800Z,5.62
2022-09-28T23:03:46.329Z,5.61
2022-09-28T23:06:17.052Z,5.62
2022-09-28T23:08:47.268Z,5.63
2022-09-28T23:11:15.593Z,5.62
2022-09-28T23:13:43.599Z,5.62
2022-09-28T23:16:14.757Z,5.62
2022-09-28T23:18:44.367Z,5.63
2022-09-28T23:21:15.301Z,5.62
2022-09-28T23:23:43.283Z,5.63
2022-09-28T23:26:14.573Z,5.62
2022-09-28T23:28:42.381Z,5.63
2022-09-28T23:31:12.125Z,5.63
2022-09-28T23:33:40.158Z,5.63
2022-09-28T23:36:10.226Z,5.63
2022-09-28T23:38:38.440Z,5.62
2022-09-28T23:41:06.484Z,5.63
2022-09-28T23:43:34.766Z,5.64
2022-09-28T23:46:02.587Z,5.65
2022-09-28T23:48:30.397Z,5.65
2022-09-28T23:50:58.432Z,5.65
2022-09-28T23:53:27.756Z,5.66
2022-09-28T23:55:55.888Z,5.67
2022-09-28T23:58:24.051Z,5.70
